ThomasiCamargo Heliport

BR-0130 · Rio de Janeiro, Brasile

Storia di METAR BR-0130 · ThomasiCamargo Heliport

Di seguito sono riportati i METAR degli ultimi giorni. Seleziona un anno per sfogliare i METAR più vecchi, dall'anno 2007 in poi.

15 aprile 2024

Tempo Codice Tempo meteorologico Temp. Vista Base nuvolosa Vento METAR/SPECI
21:00
V
25 °C 10 km+ 9.000 ft 080° 080° 5 kt METAR SBCP 160000Z 08005KT 9999 SCT025 BKN090 25/23 Q1019
20:00
V
24 °C 10 km+ 9.000 ft 090° 090° 5 kt METAR SBCP 152300Z 09005KT 9999 SCT025 BKN090 24/23 Q1018
19:00
M
25 °C 10 km+ 2.500 ft 080° 080° 10 kt METAR SBCP 152200Z 08010KT 9999 BKN025 BKN090 25/23 Q1017
18:00
M
26 °C 10 km+ 2.500 ft 110° 110° 7 kt METAR SBCP 152100Z 11007KT 9999 BKN025 BKN090 26/23 Q1016
17:00
M
27 °C 10 km+ 2.500 ft 100° 100° 11 kt METAR SBCP 152000Z 10011KT 9999 BKN025 SCT090 27/22 Q1016
16:00
V
29 °C 10 km+ - 080° 080° 9 kt METAR SBCP 151900Z 08009KT 9999 FEW015 29/21 Q1015
15:00
V
29 °C 10 km+ - 070° 070° 4 kt METAR SBCP 151800Z 07004KT 9999 FEW020 29/21 Q1015
14:00
V
30 °C 10 km+ - 080° 080° 10 kt METAR SBCP 151700Z 08010KT 9999 FEW020 30/21 Q1015
13:00
V
30 °C 10 km+ - 070° 070° 11 kt METAR SBCP 151600Z 07011KT 9999 SCT020 30/20 Q1015
12:00
V
30 °C 10 km+ - 060° 060° 10 kt METAR SBCP 151500Z 06010KT 9999 SCT020 SCT090 30/21 Q1016
11:00
M
30 °C 10 km+ 2.000 ft 060° 060° 9 kt METAR SBCP 151400Z 06009KT 9999 BKN020 30/22 Q1017
10:00
V
28 °C 10 km+ - 010° 010° 3 kt METAR SBCP 151300Z 01003KT 9999 SCT020 28/21 Q1018
09:00
V
28 °C 10 km+ - 050° 050° 3 kt METAR SBCP 151200Z 05003KT 9999 SCT020 28/22 Q1018
08:00
V
26 °C 10 km+ - 280° 280° 2 kt METAR SBCP 151100Z 28002KT 9999 FEW020 SCT090 26/23 Q1018
07:00
V
23 °C 10 km+ - 230° 230° 4 kt METAR SBCP 151000Z 23004KT 9999 SCT020 23/23 Q1017
06:15
V
23 °C 10 km+ - 270° 270° 3 kt METAR SBCP 150915Z 27003KT CAVOK 23/22 Q1017

14 aprile 2024

Tempo Codice Tempo meteorologico Temp. Vista Base nuvolosa Vento METAR/SPECI
21:00
V
25 °C 10 km+ 10.000 ft 120° 120° 4 kt METAR SBCP 150000Z 12004KT 9999 FEW015 OVC100 25/22 Q1017
20:00
V
25 °C 10 km+ 10.000 ft 130° 130° 8 kt METAR SBCP 142300Z 13008KT 9999 FEW015 OVC100 25/22 Q1017
19:00
M
25 °C 10 km+ 1.500 ft 100° 100° 8 kt METAR SBCP 142200Z 10008KT 9999 BKN015 OVC100 25/23 Q1016
18:00
M
25 °C 10 km+ 1.500 ft 100° 100° 7 kt METAR SBCP 142100Z 10007KT 9999 BKN015 OVC100 25/22 Q1016
17:00
M
26 °C 10 km+ 1.500 ft 090° 090° 10 kt METAR SBCP 142000Z 09010KT 9999 BKN015 BKN100 26/21 Q1016
16:00
M
26 °C 10 km+ 1.500 ft 080° 080° 8 kt METAR SBCP 141900Z 08008KT 9999 BKN015 BKN100 26/22 Q1015
15:00
M
27 °C 10 km+ 1.500 ft 090° 090° 11 kt METAR SBCP 141800Z 09011KT 9999 BKN015 OVC100 27/23 Q1015
14:00
M
27 °C 10 km+ 1.500 ft 080° 080° 12 kt METAR SBCP 141700Z 08012KT 9999 BKN015 BKN100 27/22 Q1015
13:00
M
27 °C 10 km+ 1.500 ft 090° 090° 10 kt METAR SBCP 141600Z 09010KT 9999 BKN015 BKN100 27/23 Q1016
12:00
M
27 °C 10 km+ 1.500 ft 040° 040° 4 kt METAR SBCP 141500Z 04004KT 9999 BKN015 BKN100 27/24 Q1016
11:00
M
27 °C 5 km 10.000 ft 070° 070° 7 kt METAR SBCP 141400Z 07007KT 5000 -RA SCT010 SCT015 BKN100 27/24 Q1017
10:00
V
27 °C 10 km+ 10.000 ft 080° 080° 3 kt METAR SBCP 141300Z 08003KT 9999 SCT010 SCT015 BKN100 27/23 Q1017
09:00
M
25 °C 5 km 1.500 ft 070° 070° 6 kt METAR SBCP 141200Z 07006KT 5000 BR SCT010 BKN015 BKN100 25/23 Q1017
08:00
M
24 °C 5 km 1.500 ft 240° 240° 3 kt METAR SBCP 141100Z 24003KT 5000 -RA SCT010 BKN015 BKN100 24/23 Q1017
07:00
M
24 °C 10 km+ 1.500 ft 010° 010° 2 kt METAR SBCP 141000Z 01002KT 9999 BKN015 BKN100 24/23 Q1016
06:15
M
23 °C 9 km 1.500 ft 310° 310° 2 kt METAR SBCP 140915Z 31002KT 9000 BKN015 BKN100 23/22 Q1016

13 aprile 2024

Tempo Codice Tempo meteorologico Temp. Vista Base nuvolosa Vento METAR/SPECI
21:00
V
23 °C 10 km+ - 110° 110° 3 kt METAR SBCP 140000Z 11003KT CAVOK 23/22 Q1016
20:00
V
23 °C 10 km+ - 110° 110° 4 kt METAR SBCP 132300Z 11004KT CAVOK 23/22 Q1016
19:00
V
24 °C 10 km+ - 110° 110° 5 kt METAR SBCP 132200Z 11005KT CAVOK 24/22 Q1016
18:00
V
25 °C 10 km+ - 100° 100° 5 kt METAR SBCP 132100Z 10005KT CAVOK 25/22 Q1016
17:00
V
27 °C 10 km+ - 090° 090° 10 kt METAR SBCP 132000Z 09010KT CAVOK 27/21 Q1015
16:00
V
29 °C 10 km+ - 100° 100° 8 kt METAR SBCP 131900Z 10008KT CAVOK 29/20 Q1015
15:00
V
30 °C 10 km+ - 100° 100° 12 kt METAR SBCP 131800Z 10012KT 9999 FEW020 30/20 Q1015
14:00
V
30 °C 10 km+ - 080° 080° 8 kt METAR SBCP 131700Z 08008KT 9999 SCT020 30/22 Q1016
13:00
V
30 °C 10 km+ - 090° 090° 5 kt METAR SBCP 131600Z 09005KT 9999 SCT020 30/23 Q1016
12:00
M
30 °C 10 km+ 2.000 ft 100° 100° 6 kt METAR SBCP 131500Z 10006KT 9999 BKN020 30/21 Q1017
11:00
M
28 °C 10 km+ 2.000 ft 110° 110° 4 kt METAR SBCP 131400Z 11004KT 9999 BKN020 28/22 Q1018
10:00
M
28 °C 10 km+ 2.000 ft 140° 140° 7 kt METAR SBCP 131300Z 14007KT 9999 BKN020 28/23 Q1019
09:00
V
28 °C 10 km+ - 170° 170° 7 kt METAR SBCP 131200Z 17007KT 9999 SCT020 28/23 Q1019
08:00
V
26 °C 10 km+ - 180° 180° 4 kt METAR SBCP 131100Z 18004KT 9999 FEW020 26/23 Q1018
07:00
V
24 °C 10 km+ - 240° 240° 3 kt METAR SBCP 131000Z 24003KT 9999 FEW020 24/22 Q1018
06:15
V
23 °C 10 km+ - 210° 210° 3 kt METAR SBCP 130915Z 21003KT 9999 FEW020 23/22 Q1017
Segnala modifiche